Rejestracja

Wszystkie dane podawane są w czasie UTC za wyjątkiem miejsc gdzie jest jednoznacznie podane, że jest inaczej. Dane podawane w serwisie mają charakter informacyjny!!!
Informacje w sprawie dostępu do serwisu pod numerem tel. +48 261-828-559 lub +48 261-828-138
Informacja dla żołnierzy i pracowników wojska: Prosimy o niezwłoczną zmianę adresu e-mail w profilu użytkownika na pocztę w domenie @ron.mil.pl
Brak służbowego adresu e-mail skutkuje usunięciem konta.

Aktualna Pogoda
 
Pogoda w Polsce
-4°C Szczecin -6°C Suwałki -1°C Warszawa -3°C Poznan
1°C Opole 0°C Kraków 1°C Rzeszów
Więcej miast w Polsce

Pogoda w Europie
-1°C Berlin 4°C Paryz 3°C Bruksela -2°C Oslo
1°C Praga 9°C Zagrzeb
Więcej miast w Europie

Metary wojskowe test
METAR EPCE 050430Z 34005KT 6000 -SHSN BKN030TCU BKN040 M02/M04 Q1018 RMK M025 092 7/5=
METAR EPDA 050430Z 31004KT 280V340 9999 FEW028 SCT055 01/M01 Q1020 RMK 011 084 4/2=
METAR EPDE 050430Z 33004KT 6000 -SN BKN012 OVC020 M01/M01 Q1014 RMK M007 094 8/5=
METAR EPIR 050430Z AUTO 32010KT M02/M04 Q1018 RMK M025 086 ///=
METAR EPKS 050430Z 36006KT CAVOK M02/M02 Q1019 RMK M020 100 1/1=
METAR EPLK 050430Z 35004KT 320V030 9999 FEW005 SCT012 OVC040 M01/M01 Q1015 RMK M008 100 8/2=
METAR EPLY 050430Z AUTO 34002KT ///174 ///183 M01/M02 Q1016 RMK M006 087 ///=
METAR EPMB 050430Z 29006KT 9999 SCT050 M02/M02 Q1018 RMK M021 100 3/3=
METAR EPMI 050430Z 33004KT 9999 SCT050 M05/M06 Q1020 RMK M046 091 3/3=
METAR EPMM 050430Z 01006KT 9999 BKN008 BKN040 M02/M03 Q1014 RMK M022 096 7/5=
SPECI EPOK 050438Z 32011KT 1200 R31/P2000N SHSN BKN010CB OVC027 M02/M02 Q1019 RMK M016 098 8/6=
METAR EPPR 050430Z 24004KT 9999 SCT054 M03/M05 Q1019 RMK M028 085 3/3=
METAR EPPW 050430Z 36004KT 9999 FEW030 BKN070 M02/M03 Q1018 RMK M021 096 5/2=
METAR EPSN 050430Z 29003KT 9999 FEW022 M05/M05 Q1020 RMK M046 100 2/2=
METAR EPTM 050400Z AUTO 35006KT VV016 M01/M03 Q1015 RMK M013 088 ///=


 

Prawa autorskie©2007 SSH SZ RP. Wszelkie prawa zastrzeżone.